sensor_id;sensor_type;location;lat;lon;timestamp;temperature;humidity
9824;DHT22;4951;50.778;7.196;2023-08-07T00:01:23;13.10;99.90
9824;DHT22;4951;50.778;7.196;2023-08-07T00:03:51;13.10;99.90
9824;DHT22;4951;50.778;7.196;2023-08-07T00:06:24;13.00;99.90
9824;DHT22;4951;50.778;7.196;2023-08-07T00:08:56;13.10;99.90
9824;DHT22;4951;50.778;7.196;2023-08-07T00:11:34;13.10;99.90
9824;DHT22;4951;50.778;7.196;2023-08-07T00:14:01;13.10;99.90
9824;DHT22;4951;50.778;7.196;2023-08-07T00:16:29;13.10;99.90
9824;DHT22;4951;50.778;7.196;2023-08-07T00:18:56;13.10;99.90
9824;DHT22;4951;50.778;7.196;2023-08-07T00:21:24;13.10;99.90
9824;DHT22;4951;50.778;7.196;2023-08-07T00:23:51;13.10;99.90
9824;DHT22;4951;50.778;7.196;2023-08-07T00:26:22;13.00;99.90
9824;DHT22;4951;50.778;7.196;2023-08-07T00:28:49;13.00;99.90
9824;DHT22;4951;50.778;7.196;2023-08-07T00:31:17;13.00;99.90
9824;DHT22;4951;50.778;7.196;2023-08-07T00:33:46;13.00;99.90
9824;DHT22;4951;50.778;7.196;2023-08-07T00:36:19;13.00;99.90
9824;DHT22;4951;50.778;7.196;2023-08-07T00:38:51;13.00;99.90
9824;DHT22;4951;50.778;7.196;2023-08-07T00:41:22;12.90;99.90
9824;DHT22;4951;50.778;7.196;2023-08-07T00:43:49;12.90;99.90
9824;DHT22;4951;50.778;7.196;2023-08-07T00:46:18;12.90;99.90
9824;DHT22;4951;50.778;7.196;2023-08-07T00:48:50;12.90;99.90
9824;DHT22;4951;50.778;7.196;2023-08-07T00:51:21;12.90;99.90
9824;DHT22;4951;50.778;7.196;2023-08-07T00:53:52;13.00;99.90
9824;DHT22;4951;50.778;7.196;2023-08-07T00:56:24;13.00;99.90
9824;DHT22;4951;50.778;7.196;2023-08-07T00:58:56;13.00;99.90
9824;DHT22;4951;50.778;7.196;2023-08-07T01:01:27;13.00;99.90
9824;DHT22;4951;50.778;7.196;2023-08-07T01:04:11;13.00;99.90
9824;DHT22;4951;50.778;7.196;2023-08-07T01:06:40;13.10;96.70
9824;DHT22;4951;50.778;7.196;2023-08-07T01:09:10;13.10;90.90
9824;DHT22;4951;50.778;7.196;2023-08-07T01:11:50;13.10;73.20
9824;DHT22;4951;50.778;7.196;2023-08-07T01:14:26;13.10;63.60
9824;DHT22;4951;50.778;7.196;2023-08-07T01:17:00;13.10;62.00
9824;DHT22;4951;50.778;7.196;2023-08-07T01:19:34;13.10;60.10
9824;DHT22;4951;50.778;7.196;2023-08-07T01:22:07;13.10;73.10
9824;DHT22;4951;50.778;7.196;2023-08-07T01:24:45;13.00;85.90
9824;DHT22;4951;50.778;7.196;2023-08-07T01:27:30;13.00;93.80
9824;DHT22;4951;50.778;7.196;2023-08-07T01:30:11;13.00;99.90
9824;DHT22;4951;50.778;7.196;2023-08-07T01:32:45;13.00;99.90
9824;DHT22;4951;50.778;7.196;2023-08-07T01:35:15;13.00;99.90
9824;DHT22;4951;50.778;7.196;2023-08-07T01:37:55;13.00;99.90
9824;DHT22;4951;50.778;7.196;2023-08-07T01:40:47;13.00;99.90
9824;DHT22;4951;50.778;7.196;2023-08-07T01:43:19;13.00;92.10
9824;DHT22;4951;50.778;7.196;2023-08-07T01:45:46;13.00;82.40
9824;DHT22;4951;50.778;7.196;2023-08-07T01:48:35;13.00;78.00
9824;DHT22;4951;50.778;7.196;2023-08-07T01:51:08;13.10;51.80
9824;DHT22;4951;50.778;7.196;2023-08-07T01:53:47;13.10;40.80
9824;DHT22;4951;50.778;7.196;2023-08-07T01:56:18;13.10;33.00
9824;DHT22;4951;50.778;7.196;2023-08-07T01:58:54;13.10;30.40
9824;DHT22;4951;50.778;7.196;2023-08-07T02:01:22;13.00;30.60
9824;DHT22;4951;50.778;7.196;2023-08-07T02:03:55;12.90;38.60
9824;DHT22;4951;50.778;7.196;2023-08-07T02:06:34;12.90;48.70
9824;DHT22;4951;50.778;7.196;2023-08-07T02:09:07;12.90;52.40
9824;DHT22;4951;50.778;7.196;2023-08-07T02:11:36;13.00;48.40
9824;DHT22;4951;50.778;7.196;2023-08-07T02:14:06;13.00;44.00
9824;DHT22;4951;50.778;7.196;2023-08-07T02:16:35;13.00;37.10
9824;DHT22;4951;50.778;7.196;2023-08-07T02:19:03;13.10;18.40
9824;DHT22;4951;50.778;7.196;2023-08-07T02:21:32;13.10;12.30
9824;DHT22;4951;50.778;7.196;2023-08-07T02:24:00;13.10;2.20
9824;DHT22;4951;50.778;7.196;2023-08-07T02:26:30;13.10;1.00
9824;DHT22;4951;50.778;7.196;2023-08-07T02:29:00;13.00;1.00
9824;DHT22;4951;50.778;7.196;2023-08-07T02:31:31;13.00;5.30
9824;DHT22;4951;50.778;7.196;2023-08-07T02:33:59;13.00;12.70
9824;DHT22;4951;50.778;7.196;2023-08-07T02:36:27;13.10;18.70
9824;DHT22;4951;50.778;7.196;2023-08-07T02:38:54;13.00;18.50
9824;DHT22;4951;50.778;7.196;2023-08-07T02:41:22;13.10;6.40
9824;DHT22;4951;50.778;7.196;2023-08-07T02:43:55;13.10;1.00
9824;DHT22;4951;50.778;7.196;2023-08-07T02:46:23;13.20;1.00
9824;DHT22;4951;50.778;7.196;2023-08-07T02:51:38;13.20;1.00
9824;DHT22;4951;50.778;7.196;2023-08-07T02:54:09;13.20;1.00
9824;DHT22;4951;50.778;7.196;2023-08-07T02:56:37;13.20;1.00
9824;DHT22;4951;50.778;7.196;2023-08-07T02:59:07;13.20;1.00
9824;DHT22;4951;50.778;7.196;2023-08-07T03:01:37;13.20;1.00
9824;DHT22;4951;50.778;7.196;2023-08-07T03:04:08;13.20;1.00
9824;DHT22;4951;50.778;7.196;2023-08-07T03:06:36;13.20;1.00
9824;DHT22;4951;50.778;7.196;2023-08-07T03:09:04;13.20;1.00
9824;DHT22;4951;50.778;7.196;2023-08-07T03:11:31;13.20;1.00
9824;DHT22;4951;50.778;7.196;2023-08-07T03:13:59;13.10;1.00
9824;DHT22;4951;50.778;7.196;2023-08-07T03:16:29;13.10;1.00
9824;DHT22;4951;50.778;7.196;2023-08-07T03:18:58;12.90;1.00
9824;DHT22;4951;50.778;7.196;2023-08-07T03:21:27;12.90;1.00
9824;DHT22;4951;50.778;7.196;2023-08-07T03:23:54;12.80;1.00
9824;DHT22;4951;50.778;7.196;2023-08-07T03:26:25;12.80;1.00
9824;DHT22;4951;50.778;7.196;2023-08-07T03:28:52;12.80;8.50
9824;DHT22;4951;50.778;7.196;2023-08-07T03:31:20;12.70;13.30
9824;DHT22;4951;50.778;7.196;2023-08-07T03:33:48;12.60;21.80
9824;DHT22;4951;50.778;7.196;2023-08-07T03:36:17;12.60;38.50
9824;DHT22;4951;50.778;7.196;2023-08-07T03:38:45;12.60;63.60
9824;DHT22;4951;50.778;7.196;2023-08-07T03:41:13;12.50;86.40
9824;DHT22;4951;50.778;7.196;2023-08-07T03:43:44;12.50;99.90
9824;DHT22;4951;50.778;7.196;2023-08-07T03:46:12;12.50;99.90
9824;DHT22;4951;50.778;7.196;2023-08-07T03:48:40;12.40;99.90
9824;DHT22;4951;50.778;7.196;2023-08-07T03:51:10;12.40;99.90
9824;DHT22;4951;50.778;7.196;2023-08-07T03:53:45;12.40;99.90
9824;DHT22;4951;50.778;7.196;2023-08-07T03:56:13;12.40;99.90
9824;DHT22;4951;50.778;7.196;2023-08-07T03:58:45;12.30;99.90
9824;DHT22;4951;50.778;7.196;2023-08-07T04:01:16;12.30;99.90
9824;DHT22;4951;50.778;7.196;2023-08-07T04:03:46;12.30;99.90
9824;DHT22;4951;50.778;7.196;2023-08-07T04:06:15;12.30;99.90
9824;DHT22;4951;50.778;7.196;2023-08-07T04:08:44;12.30;99.90
9824;DHT22;4951;50.778;7.196;2023-08-07T04:11:16;12.30;99.90
9824;DHT22;4951;50.778;7.196;2023-08-07T04:13:52;12.30;99.90
9824;DHT22;4951;50.778;7.196;2023-08-07T04:16:20;12.30;99.90
9824;DHT22;4951;50.778;7.196;2023-08-07T04:18:50;12.30;99.90
9824;DHT22;4951;50.778;7.196;2023-08-07T04:21:22;12.30;99.90
9824;DHT22;4951;50.778;7.196;2023-08-07T04:23:52;12.30;99.90
9824;DHT22;4951;50.778;7.196;2023-08-07T04:26:19;12.30;99.90
9824;DHT22;4951;50.778;7.196;2023-08-07T04:28:46;12.20;99.90
9824;DHT22;4951;50.778;7.196;2023-08-07T04:31:14;12.30;99.90
9824;DHT22;4951;50.778;7.196;2023-08-07T04:33:41;12.20;99.90
9824;DHT22;4951;50.778;7.196;2023-08-07T04:36:11;12.20;99.90
9824;DHT22;4951;50.778;7.196;2023-08-07T04:38:40;12.20;99.90
9824;DHT22;4951;50.778;7.196;2023-08-07T04:41:07;12.10;99.90
9824;DHT22;4951;50.778;7.196;2023-08-07T04:43:36;12.10;99.90
9824;DHT22;4951;50.778;7.196;2023-08-07T04:46:03;12.10;99.90
9824;DHT22;4951;50.778;7.196;2023-08-07T04:48:30;12.10;99.90
9824;DHT22;4951;50.778;7.196;2023-08-07T04:50:57;12.20;99.90
9824;DHT22;4951;50.778;7.196;2023-08-07T04:53:25;12.20;99.90
9824;DHT22;4951;50.778;7.196;2023-08-07T04:55:56;12.20;99.90
9824;DHT22;4951;50.778;7.196;2023-08-07T04:58:23;12.20;99.90
9824;DHT22;4951;50.778;7.196;2023-08-07T05:00:55;12.20;99.90
9824;DHT22;4951;50.778;7.196;2023-08-07T05:03:22;12.20;99.90
9824;DHT22;4951;50.778;7.196;2023-08-07T05:05:49;12.20;99.90
9824;DHT22;4951;50.778;7.196;2023-08-07T05:08:16;12.20;99.90
9824;DHT22;4951;50.778;7.196;2023-08-07T05:10:44;12.20;99.90
9824;DHT22;4951;50.778;7.196;2023-08-07T05:13:13;12.10;99.90
9824;DHT22;4951;50.778;7.196;2023-08-07T05:15:40;12.20;99.90
9824;DHT22;4951;50.778;7.196;2023-08-07T05:18:09;12.20;99.90
9824;DHT22;4951;50.778;7.196;2023-08-07T05:20:38;12.20;99.90
9824;DHT22;4951;50.778;7.196;2023-08-07T05:23:05;12.20;99.90
9824;DHT22;4951;50.778;7.196;2023-08-07T05:25:32;12.30;99.90
9824;DHT22;4951;50.778;7.196;2023-08-07T05:28:01;12.30;99.90
9824;DHT22;4951;50.778;7.196;2023-08-07T05:30:30;12.40;99.90
9824;DHT22;4951;50.778;7.196;2023-08-07T05:32:57;12.40;99.90
9824;DHT22;4951;50.778;7.196;2023-08-07T05:35:26;12.40;99.90
9824;DHT22;4951;50.778;7.196;2023-08-07T05:37:53;12.50;99.90
9824;DHT22;4951;50.778;7.196;2023-08-07T05:40:21;12.50;99.90
9824;DHT22;4951;50.778;7.196;2023-08-07T05:42:48;12.50;99.90
9824;DHT22;4951;50.778;7.196;2023-08-07T05:45:15;12.50;99.90
9824;DHT22;4951;50.778;7.196;2023-08-07T05:47:45;12.60;99.90
9824;DHT22;4951;50.778;7.196;2023-08-07T05:50:12;12.60;99.90
9824;DHT22;4951;50.778;7.196;2023-08-07T05:52:41;12.70;99.90
9824;DHT22;4951;50.778;7.196;2023-08-07T05:55:09;12.80;99.90
9824;DHT22;4951;50.778;7.196;2023-08-07T05:57:36;12.80;99.90
9824;DHT22;4951;50.778;7.196;2023-08-07T06:00:04;12.90;99.90
9824;DHT22;4951;50.778;7.196;2023-08-07T06:02:41;12.90;99.90
9824;DHT22;4951;50.778;7.196;2023-08-07T06:05:09;12.90;99.90
9824;DHT22;4951;50.778;7.196;2023-08-07T06:07:38;13.00;99.90
9824;DHT22;4951;50.778;7.196;2023-08-07T06:10:07;13.00;99.90
9824;DHT22;4951;50.778;7.196;2023-08-07T06:12:34;13.00;80.40
9824;DHT22;4951;50.778;7.196;2023-08-07T06:15:02;13.00;61.30
9824;DHT22;4951;50.778;7.196;2023-08-07T06:17:30;13.00;58.00
9824;DHT22;4951;50.778;7.196;2023-08-07T06:19:57;13.00;52.20
9824;DHT22;4951;50.778;7.196;2023-08-07T06:22:26;13.00;53.40
9824;DHT22;4951;50.778;7.196;2023-08-07T06:24:53;13.00;36.90
9824;DHT22;4951;50.778;7.196;2023-08-07T06:27:21;13.10;27.70
9824;DHT22;4951;50.778;7.196;2023-08-07T06:29:48;13.10;5.50
9824;DHT22;4951;50.778;7.196;2023-08-07T06:32:16;13.10;1.00
9824;DHT22;4951;50.778;7.196;2023-08-07T06:34:44;13.10;1.00
9824;DHT22;4951;50.778;7.196;2023-08-07T06:37:12;13.10;1.00
9824;DHT22;4951;50.778;7.196;2023-08-07T06:39:40;13.00;1.00
9824;DHT22;4951;50.778;7.196;2023-08-07T06:42:08;12.90;1.00
9824;DHT22;4951;50.778;7.196;2023-08-07T06:44:37;12.90;1.00
9824;DHT22;4951;50.778;7.196;2023-08-07T06:47:04;12.80;1.00
9824;DHT22;4951;50.778;7.196;2023-08-07T06:49:32;12.70;1.00
9824;DHT22;4951;50.778;7.196;2023-08-07T06:52:01;12.60;14.80
9824;DHT22;4951;50.778;7.196;2023-08-07T06:54:28;12.50;40.00
9824;DHT22;4951;50.778;7.196;2023-08-07T06:56:58;12.40;89.20
9824;DHT22;4951;50.778;7.196;2023-08-07T06:59:25;12.30;99.90
9824;DHT22;4951;50.778;7.196;2023-08-07T07:01:53;12.30;99.90
9824;DHT22;4951;50.778;7.196;2023-08-07T07:04:21;12.20;99.90
9824;DHT22;4951;50.778;7.196;2023-08-07T07:06:49;12.10;99.90
9824;DHT22;4951;50.778;7.196;2023-08-07T07:09:17;12.10;99.90
9824;DHT22;4951;50.778;7.196;2023-08-07T07:11:46;12.10;99.90
9824;DHT22;4951;50.778;7.196;2023-08-07T07:14:15;12.10;99.90
9824;DHT22;4951;50.778;7.196;2023-08-07T07:16:42;12.10;99.90
9824;DHT22;4951;50.778;7.196;2023-08-07T07:19:09;12.10;99.90
9824;DHT22;4951;50.778;7.196;2023-08-07T07:21:37;12.00;99.90
9824;DHT22;4951;50.778;7.196;2023-08-07T07:24:06;12.10;99.90
9824;DHT22;4951;50.778;7.196;2023-08-07T07:26:34;12.00;99.90
9824;DHT22;4951;50.778;7.196;2023-08-07T07:29:01;12.00;99.90
9824;DHT22;4951;50.778;7.196;2023-08-07T07:31:32;12.00;99.90
9824;DHT22;4951;50.778;7.196;2023-08-07T07:34:00;12.00;99.90
9824;DHT22;4951;50.778;7.196;2023-08-07T07:36:27;12.00;99.90
9824;DHT22;4951;50.778;7.196;2023-08-07T07:38:54;12.00;99.90
9824;DHT22;4951;50.778;7.196;2023-08-07T07:41:22;12.00;99.90
9824;DHT22;4951;50.778;7.196;2023-08-07T07:43:49;12.00;99.90
9824;DHT22;4951;50.778;7.196;2023-08-07T07:46:16;12.00;99.90
9824;DHT22;4951;50.778;7.196;2023-08-07T07:48:44;12.00;99.90
9824;DHT22;4951;50.778;7.196;2023-08-07T07:51:11;12.10;99.90
9824;DHT22;4951;50.778;7.196;2023-08-07T07:53:39;12.10;99.90
9824;DHT22;4951;50.778;7.196;2023-08-07T07:56:06;12.10;99.90
9824;DHT22;4951;50.778;7.196;2023-08-07T07:58:33;12.10;99.90
9824;DHT22;4951;50.778;7.196;2023-08-07T08:01:00;12.20;99.90
9824;DHT22;4951;50.778;7.196;2023-08-07T08:03:28;12.20;99.90
9824;DHT22;4951;50.778;7.196;2023-08-07T08:05:56;12.30;99.90
9824;DHT22;4951;50.778;7.196;2023-08-07T08:08:23;12.40;99.90
9824;DHT22;4951;50.778;7.196;2023-08-07T08:10:50;12.50;99.90
9824;DHT22;4951;50.778;7.196;2023-08-07T08:13:18;12.50;99.90
9824;DHT22;4951;50.778;7.196;2023-08-07T08:15:45;12.60;99.90
9824;DHT22;4951;50.778;7.196;2023-08-07T08:18:12;12.60;99.90
9824;DHT22;4951;50.778;7.196;2023-08-07T08:20:39;12.70;99.90
9824;DHT22;4951;50.778;7.196;2023-08-07T08:23:08;12.70;99.90
9824;DHT22;4951;50.778;7.196;2023-08-07T08:25:35;12.70;99.90
9824;DHT22;4951;50.778;7.196;2023-08-07T08:28:03;12.80;99.90
9824;DHT22;4951;50.778;7.196;2023-08-07T08:30:31;12.80;99.90
9824;DHT22;4951;50.778;7.196;2023-08-07T08:32:58;12.90;99.90
9824;DHT22;4951;50.778;7.196;2023-08-07T08:35:27;12.90;99.90
9824;DHT22;4951;50.778;7.196;2023-08-07T08:37:54;13.00;99.90
9824;DHT22;4951;50.778;7.196;2023-08-07T08:40:24;13.00;99.90
9824;DHT22;4951;50.778;7.196;2023-08-07T08:42:51;13.10;99.90
9824;DHT22;4951;50.778;7.196;2023-08-07T08:45:20;13.20;99.90
9824;DHT22;4951;50.778;7.196;2023-08-07T08:47:49;13.20;99.90
9824;DHT22;4951;50.778;7.196;2023-08-07T08:50:19;13.30;99.90
9824;DHT22;4951;50.778;7.196;2023-08-07T08:52:46;13.30;99.90
9824;DHT22;4951;50.778;7.196;2023-08-07T08:55:14;13.40;99.90
9824;DHT22;4951;50.778;7.196;2023-08-07T08:57:43;13.40;99.90
9824;DHT22;4951;50.778;7.196;2023-08-07T09:00:11;13.50;99.90
9824;DHT22;4951;50.778;7.196;2023-08-07T09:02:45;13.50;99.90
9824;DHT22;4951;50.778;7.196;2023-08-07T09:05:14;13.50;99.90
9824;DHT22;4951;50.778;7.196;2023-08-07T09:07:41;13.40;99.90
9824;DHT22;4951;50.778;7.196;2023-08-07T09:10:09;13.40;99.90
9824;DHT22;4951;50.778;7.196;2023-08-07T09:12:40;13.40;99.90
9824;DHT22;4951;50.778;7.196;2023-08-07T09:15:10;13.40;99.90
9824;DHT22;4951;50.778;7.196;2023-08-07T09:17:40;13.40;99.90
9824;DHT22;4951;50.778;7.196;2023-08-07T09:20:08;13.40;99.90
9824;DHT22;4951;50.778;7.196;2023-08-07T09:22:37;13.50;99.90
9824;DHT22;4951;50.778;7.196;2023-08-07T09:25:06;13.50;99.90
9824;DHT22;4951;50.778;7.196;2023-08-07T09:27:36;13.50;99.90
9824;DHT22;4951;50.778;7.196;2023-08-07T09:30:06;13.60;99.90
9824;DHT22;4951;50.778;7.196;2023-08-07T09:32:36;13.70;99.90
9824;DHT22;4951;50.778;7.196;2023-08-07T09:35:06;13.80;99.90
9824;DHT22;4951;50.778;7.196;2023-08-07T09:37:36;14.00;99.90
9824;DHT22;4951;50.778;7.196;2023-08-07T09:40:06;14.10;99.90
9824;DHT22;4951;50.778;7.196;2023-08-07T09:42:36;14.30;99.90
9824;DHT22;4951;50.778;7.196;2023-08-07T09:45:19;14.40;99.90
9824;DHT22;4951;50.778;7.196;2023-08-07T09:47:56;14.50;99.90
9824;DHT22;4951;50.778;7.196;2023-08-07T09:50:24;14.50;98.10
9824;DHT22;4951;50.778;7.196;2023-08-07T09:52:54;14.60;67.00
9824;DHT22;4951;50.778;7.196;2023-08-07T09:55:22;14.60;2.20
9824;DHT22;4951;50.778;7.196;2023-08-07T09:57:51;14.60;1.00
9824;DHT22;4951;50.778;7.196;2023-08-07T10:00:19;14.60;1.00
9824;DHT22;4951;50.778;7.196;2023-08-07T10:02:50;14.70;1.00
9824;DHT22;4951;50.778;7.196;2023-08-07T10:05:17;14.80;1.00
9824;DHT22;4951;50.778;7.196;2023-08-07T10:07:46;14.90;1.00
9824;DHT22;4951;50.778;7.196;2023-08-07T10:10:14;15.00;1.00
9824;DHT22;4951;50.778;7.196;2023-08-07T10:12:45;15.20;1.00
9824;DHT22;4951;50.778;7.196;2023-08-07T10:15:14;15.30;1.00
9824;DHT22;4951;50.778;7.196;2023-08-07T10:17:42;15.50;1.00
9824;DHT22;4951;50.778;7.196;2023-08-07T10:20:11;15.60;1.00
9824;DHT22;4951;50.778;7.196;2023-08-07T10:22:40;15.70;1.00
9824;DHT22;4951;50.778;7.196;2023-08-07T10:25:09;15.70;1.00
9824;DHT22;4951;50.778;7.196;2023-08-07T10:27:38;15.60;1.00
9824;DHT22;4951;50.778;7.196;2023-08-07T10:30:11;15.60;1.00
9824;DHT22;4951;50.778;7.196;2023-08-07T10:32:40;15.60;1.00
9824;DHT22;4951;50.778;7.196;2023-08-07T10:35:13;15.60;1.00
9824;DHT22;4951;50.778;7.196;2023-08-07T10:37:51;15.70;1.00
9824;DHT22;4951;50.778;7.196;2023-08-07T10:40:18;15.90;1.00
9824;DHT22;4951;50.778;7.196;2023-08-07T10:43:12;16.00;1.00
9824;DHT22;4951;50.778;7.196;2023-08-07T10:45:40;16.20;1.00
9824;DHT22;4951;50.778;7.196;2023-08-07T10:48:10;16.30;1.00
9824;DHT22;4951;50.778;7.196;2023-08-07T10:50:50;16.40;1.00
9824;DHT22;4951;50.778;7.196;2023-08-07T10:53:28;16.60;1.00
9824;DHT22;4951;50.778;7.196;2023-08-07T10:55:55;16.70;1.00
9824;DHT22;4951;50.778;7.196;2023-08-07T10:58:25;16.80;1.00
9824;DHT22;4951;50.778;7.196;2023-08-07T11:01:16;16.90;1.00
9824;DHT22;4951;50.778;7.196;2023-08-07T11:03:49;17.00;99.90
9824;DHT22;4951;50.778;7.196;2023-08-07T11:06:22;17.20;99.90
9824;DHT22;4951;50.778;7.196;2023-08-07T11:08:50;17.30;1.00
9824;DHT22;4951;50.778;7.196;2023-08-07T11:11:18;17.40;1.00
9824;DHT22;4951;50.778;7.196;2023-08-07T11:13:46;17.30;1.00
9824;DHT22;4951;50.778;7.196;2023-08-07T11:16:13;17.40;1.00
9824;DHT22;4951;50.778;7.196;2023-08-07T11:18:42;17.40;99.90
9824;DHT22;4951;50.778;7.196;2023-08-07T11:21:10;17.40;1.00
9824;DHT22;4951;50.778;7.196;2023-08-07T11:23:40;17.40;99.90
9824;DHT22;4951;50.778;7.196;2023-08-07T11:26:10;17.40;1.00
9824;DHT22;4951;50.778;7.196;2023-08-07T11:28:38;17.50;99.90
9824;DHT22;4951;50.778;7.196;2023-08-07T11:31:06;17.40;99.90
9824;DHT22;4951;50.778;7.196;2023-08-07T11:33:35;17.50;1.00
9824;DHT22;4951;50.778;7.196;2023-08-07T11:36:03;17.50;1.00
9824;DHT22;4951;50.778;7.196;2023-08-07T11:38:39;17.50;99.90
9824;DHT22;4951;50.778;7.196;2023-08-07T11:41:09;17.50;99.90
9824;DHT22;4951;50.778;7.196;2023-08-07T11:43:37;17.60;1.00
9824;DHT22;4951;50.778;7.196;2023-08-07T11:46:06;17.70;1.00
9824;DHT22;4951;50.778;7.196;2023-08-07T11:48:35;17.70;99.90
9824;DHT22;4951;50.778;7.196;2023-08-07T11:51:04;17.90;1.00
9824;DHT22;4951;50.778;7.196;2023-08-07T11:53:35;18.10;99.90
9824;DHT22;4951;50.778;7.196;2023-08-07T11:56:06;18.30;99.90
9824;DHT22;4951;50.778;7.196;2023-08-07T11:58:36;18.50;99.90
9824;DHT22;4951;50.778;7.196;2023-08-07T12:01:04;18.50;1.00
9824;DHT22;4951;50.778;7.196;2023-08-07T12:03:34;18.40;1.00
9824;DHT22;4951;50.778;7.196;2023-08-07T12:06:05;18.40;1.00
9824;DHT22;4951;50.778;7.196;2023-08-07T12:08:34;18.40;1.00
9824;DHT22;4951;50.778;7.196;2023-08-07T12:11:04;18.50;1.00
9824;DHT22;4951;50.778;7.196;2023-08-07T12:13:32;18.40;99.90
9824;DHT22;4951;50.778;7.196;2023-08-07T12:16:02;18.40;1.00
9824;DHT22;4951;50.778;7.196;2023-08-07T12:18:30;18.30;99.90
9824;DHT22;4951;50.778;7.196;2023-08-07T12:20:59;18.60;1.00
9824;DHT22;4951;50.778;7.196;2023-08-07T12:23:27;18.70;1.00
9824;DHT22;4951;50.778;7.196;2023-08-07T12:25:54;19.00;1.00
9824;DHT22;4951;50.778;7.196;2023-08-07T12:28:24;19.20;99.90
9824;DHT22;4951;50.778;7.196;2023-08-07T12:30:52;19.30;18.70
9824;DHT22;4951;50.778;7.196;2023-08-07T12:33:19;19.30;1.00
9824;DHT22;4951;50.778;7.196;2023-08-07T12:35:47;19.40;99.90
9824;DHT22;4951;50.778;7.196;2023-08-07T12:38:14;19.40;1.00
9824;DHT22;4951;50.778;7.196;2023-08-07T12:40:43;19.60;99.90
9824;DHT22;4951;50.778;7.196;2023-08-07T12:43:12;19.90;1.00
9824;DHT22;4951;50.778;7.196;2023-08-07T12:45:40;19.90;1.00
9824;DHT22;4951;50.778;7.196;2023-08-07T12:48:08;19.80;99.90
9824;DHT22;4951;50.778;7.196;2023-08-07T12:50:36;19.60;99.90
9824;DHT22;4951;50.778;7.196;2023-08-07T12:53:04;19.70;99.90
9824;DHT22;4951;50.778;7.196;2023-08-07T12:55:32;19.90;99.90
9824;DHT22;4951;50.778;7.196;2023-08-07T12:57:59;20.30;95.60
9824;DHT22;4951;50.778;7.196;2023-08-07T13:00:27;20.60;91.90
9824;DHT22;4951;50.778;7.196;2023-08-07T13:02:56;20.60;1.00
9824;DHT22;4951;50.778;7.196;2023-08-07T13:05:24;20.50;1.00
9824;DHT22;4951;50.778;7.196;2023-08-07T13:07:51;20.60;1.00
9824;DHT22;4951;50.778;7.196;2023-08-07T13:10:20;20.50;1.00
9824;DHT22;4951;50.778;7.196;2023-08-07T13:12:49;20.50;99.90
9824;DHT22;4951;50.778;7.196;2023-08-07T13:15:17;20.70;1.00
9824;DHT22;4951;50.778;7.196;2023-08-07T13:17:45;21.00;1.00
9824;DHT22;4951;50.778;7.196;2023-08-07T13:20:14;20.90;99.90
9824;DHT22;4951;50.778;7.196;2023-08-07T13:22:42;20.70;99.90
9824;DHT22;4951;50.778;7.196;2023-08-07T13:25:12;20.50;1.00
9824;DHT22;4951;50.778;7.196;2023-08-07T13:27:39;20.30;1.00
9824;DHT22;4951;50.778;7.196;2023-08-07T13:30:08;20.10;99.90
9824;DHT22;4951;50.778;7.196;2023-08-07T13:32:35;19.90;99.90
9824;DHT22;4951;50.778;7.196;2023-08-07T13:35:03;19.60;99.90
9824;DHT22;4951;50.778;7.196;2023-08-07T13:37:32;19.90;99.90
9824;DHT22;4951;50.778;7.196;2023-08-07T13:40:00;20.50;99.90
9824;DHT22;4951;50.778;7.196;2023-08-07T13:42:30;21.30;99.90
9824;DHT22;4951;50.778;7.196;2023-08-07T13:44:58;22.10;62.60
9824;DHT22;4951;50.778;7.196;2023-08-07T13:47:26;22.50;1.00
9824;DHT22;4951;50.778;7.196;2023-08-07T13:49:53;22.30;1.00
9824;DHT22;4951;50.778;7.196;2023-08-07T13:52:21;22.00;1.00
9824;DHT22;4951;50.778;7.196;2023-08-07T13:54:50;21.50;1.00
9824;DHT22;4951;50.778;7.196;2023-08-07T13:57:21;21.10;1.00
9824;DHT22;4951;50.778;7.196;2023-08-07T13:59:48;21.10;1.00
9824;DHT22;4951;50.778;7.196;2023-08-07T14:02:15;21.50;1.00
9824;DHT22;4951;50.778;7.196;2023-08-07T14:04:43;22.00;1.00
9824;DHT22;4951;50.778;7.196;2023-08-07T14:07:13;22.40;1.00
9824;DHT22;4951;50.778;7.196;2023-08-07T14:09:43;22.40;1.00
9824;DHT22;4951;50.778;7.196;2023-08-07T14:12:11;22.10;1.00
9824;DHT22;4951;50.778;7.196;2023-08-07T14:14:39;22.20;1.00
9824;DHT22;4951;50.778;7.196;2023-08-07T14:17:06;22.50;1.00
9824;DHT22;4951;50.778;7.196;2023-08-07T14:19:33;22.40;1.00
9824;DHT22;4951;50.778;7.196;2023-08-07T14:22:02;21.90;1.00
9824;DHT22;4951;50.778;7.196;2023-08-07T14:24:30;21.30;1.00
9824;DHT22;4951;50.778;7.196;2023-08-07T14:26:57;20.80;1.00
9824;DHT22;4951;50.778;7.196;2023-08-07T14:29:26;20.00;1.00
9824;DHT22;4951;50.778;7.196;2023-08-07T14:31:53;18.60;99.90
9824;DHT22;4951;50.778;7.196;2023-08-07T14:34:21;17.50;99.90
9824;DHT22;4951;50.778;7.196;2023-08-07T14:36:49;16.90;8.70
9824;DHT22;4951;50.778;7.196;2023-08-07T14:39:17;16.80;1.00
9824;DHT22;4951;50.778;7.196;2023-08-07T14:41:45;17.20;1.00
9824;DHT22;4951;50.778;7.196;2023-08-07T14:44:14;18.10;99.90
9824;DHT22;4951;50.778;7.196;2023-08-07T14:46:44;19.20;1.00
9824;DHT22;4951;50.778;7.196;2023-08-07T14:49:11;20.10;99.90
9824;DHT22;4951;50.778;7.196;2023-08-07T14:51:38;21.00;99.90
9824;DHT22;4951;50.778;7.196;2023-08-07T14:54:05;21.50;1.00
9824;DHT22;4951;50.778;7.196;2023-08-07T14:56:32;21.30;1.00
9824;DHT22;4951;50.778;7.196;2023-08-07T14:59:01;20.80;1.00
9824;DHT22;4951;50.778;7.196;2023-08-07T15:01:28;20.10;99.90
9824;DHT22;4951;50.778;7.196;2023-08-07T15:03:58;19.50;32.00
9824;DHT22;4951;50.778;7.196;2023-08-07T15:06:25;19.10;1.00
9824;DHT22;4951;50.778;7.196;2023-08-07T15:08:52;18.60;99.90
9824;DHT22;4951;50.778;7.196;2023-08-07T15:11:21;18.30;99.90
9824;DHT22;4951;50.778;7.196;2023-08-07T15:13:48;18.00;99.90
9824;DHT22;4951;50.778;7.196;2023-08-07T15:16:15;17.80;1.00
9824;DHT22;4951;50.778;7.196;2023-08-07T15:18:42;17.80;1.00
9824;DHT22;4951;50.778;7.196;2023-08-07T15:21:11;18.00;99.90
9824;DHT22;4951;50.778;7.196;2023-08-07T15:23:38;18.30;99.90
9824;DHT22;4951;50.778;7.196;2023-08-07T15:26:06;19.00;1.00
9824;DHT22;4951;50.778;7.196;2023-08-07T15:28:37;20.00;99.90
9824;DHT22;4951;50.778;7.196;2023-08-07T15:31:05;20.70;99.90
9824;DHT22;4951;50.778;7.196;2023-08-07T15:33:32;21.10;1.00
9824;DHT22;4951;50.778;7.196;2023-08-07T15:36:00;21.70;1.00
9824;DHT22;4951;50.778;7.196;2023-08-07T15:38:36;22.40;2.40
9824;DHT22;4951;50.778;7.196;2023-08-07T15:41:04;23.00;1.00
9824;DHT22;4951;50.778;7.196;2023-08-07T15:43:32;23.40;99.90
9824;DHT22;4951;50.778;7.196;2023-08-07T15:46:00;23.80;99.90
9824;DHT22;4951;50.778;7.196;2023-08-07T15:48:28;24.20;1.00
9824;DHT22;4951;50.778;7.196;2023-08-07T15:50:57;24.40;1.00
9824;DHT22;4951;50.778;7.196;2023-08-07T15:53:24;24.60;99.90
9824;DHT22;4951;50.778;7.196;2023-08-07T15:55:54;24.70;1.00
9824;DHT22;4951;50.778;7.196;2023-08-07T15:58:21;24.60;1.00
9824;DHT22;4951;50.778;7.196;2023-08-07T16:00:55;24.50;1.00
9824;DHT22;4951;50.778;7.196;2023-08-07T16:03:25;24.30;1.00
9824;DHT22;4951;50.778;7.196;2023-08-07T16:05:52;24.30;1.00
9824;DHT22;4951;50.778;7.196;2023-08-07T16:08:20;24.30;1.00
9824;DHT22;4951;50.778;7.196;2023-08-07T16:10:47;24.40;1.00
9824;DHT22;4951;50.778;7.196;2023-08-07T16:13:18;24.50;1.00
9824;DHT22;4951;50.778;7.196;2023-08-07T16:15:45;24.50;1.00
9824;DHT22;4951;50.778;7.196;2023-08-07T16:18:13;24.50;1.00
9824;DHT22;4951;50.778;7.196;2023-08-07T16:20:43;24.30;99.90
9824;DHT22;4951;50.778;7.196;2023-08-07T16:23:12;23.80;99.90